Darstellungsparameter: Aktuell verwendete Einstellungen:
Skalierung der Graphiken ... ?
xyx+y,   Skalierungsfaktor:      Skalierung: Modus: x, Faktor: 1
Darstellungszeitraum ... ?
Vom - - bis: - -   Zeitraum: 19.02.2022 - 21.02.2022
Min/Max/Avg-Anzeige ... ?
Zeige MMA aktuell
Zeige MMA Monat
Zeige MMA alles
Zeige --A aktuell
Zeige --A Monat
Zeige --A alles
Keine MMA-Anzeige
MMA:
Keine MMA-Graphiken
MMA-Basis: 19.02.2022 - 21.02.2022
Quicknavigation für Darstellung... ?
Tage:      1T, 2T, 3T, 5T -1T -2T -3T -5T +1T +2T +3T +5T
Wochen: 1W, 2W, 3W -1W -2W -3W +1W +2W +3W
Monate: 1M, 3M, 6M -1M -3M -6M +1M +3M +6M
Jahre:    1J, 3J, 5J, 10J -1J -3J -5J -10J +1J +3J +5J +10J
Nutze für die Darstellung ... ?
Originaldaten oder Mittelwerte auf ...
Stundenbasis Tagesbasis Wochenbasis
Monatsbasis Jahresbasis      Datenbasis: Original-Daten
Darstellen als:
Statistik (Auto) Statistik J:M      Darstellung:
Zur Graphik,    zurück zur Übersicht aller Sensoren.
 
Tabellarische Datenbersicht: ?
 
Sensor: Nr:Datum:Temp:Abs-Feuchte:Windchill:Wind:
Aussen-T/F 1 19-02-2022 00:00:00 7.7 C 5.03 g/m*3 4.22 C 22.5 km/h
2 19-02-2022 00:05:00 7.7 C 5.03 g/m*3 3.41 C 32.2 km/h
3 19-02-2022 00:10:00 7.8 C 4.98 g/m*3 4.51 C 20.9 km/h
4 19-02-2022 00:15:00 7.8 C 5.06 g/m*3 3.22 C 37 km/h
5 19-02-2022 00:20:00 7.8 C 5.3 g/m*3 3.22 C 37 km/h
6 19-02-2022 00:25:00 7.4 C 5.33 g/m*3 2.3 C 43.4 km/h
7 19-02-2022 00:30:00 7 C 5.5 g/m*3 1.76 C 43.4 km/h
8 19-02-2022 00:35:00 6.6 C 5.59 g/m*3 1.97 C 32.2 km/h
9 19-02-2022 00:40:00 6.3 C 5.63 g/m*3 2.98 C 17.7 km/h
10 19-02-2022 00:45:00 6.2 C 5.59 g/m*3 3.07 C 16.1 km/h
11 19-02-2022 00:50:00 6.1 C 5.77 g/m*3 1.57 C 29 km/h
12 19-02-2022 00:55:00 5.8 C 5.73 g/m*3 1.05 C 30.6 km/h
13 19-02-2022 01:00:00 5.6 C 5.73 g/m*3 1.72 C 20.9 km/h
14 19-02-2022 01:05:00 5.3 C 5.61 g/m*3 2.46 C 12.9 km/h
15 19-02-2022 01:10:00 5.2 C 5.58 g/m*3 2.63 C 11.3 km/h
16 19-02-2022 01:15:00 5.1 C 5.54 g/m*3 2.51 C 11.3 km/h
17 19-02-2022 01:20:00 5.1 C 5.54 g/m*3 2.22 C 12.9 km/h
18 19-02-2022 01:25:00 5.2 C 5.51 g/m*3 1.4 C 19.3 km/h
19 19-02-2022 01:30:00 5.4 C 5.37 g/m*3 1.86 C 17.7 km/h
20 19-02-2022 01:35:00 5.6 C 5.37 g/m*3 2.33 C 16.1 km/h
21 19-02-2022 01:40:00 5.6 C 5.37 g/m*3 3.11 C 11.3 km/h
22 19-02-2022 01:45:00 5.7 C 5.41 g/m*3 1.85 C 20.9 km/h
23 19-02-2022 01:50:00 5.8 C 5.37 g/m*3 2.16 C 19.3 km/h
24 19-02-2022 01:55:00 5.9 C 5.41 g/m*3 3.19 C 12.9 km/h
25 19-02-2022 02:00:00 5.9 C 5.34 g/m*3 2.48 C 17.7 km/h
Sensor: Nr:Datum:Temp:Abs-Feuchte:Windchill:Wind:
Aussen-T/F 26 19-02-2022 02:05:00 5.9 C 5.26 g/m*3 1.31 C 29 km/h
27 19-02-2022 02:10:00 6.1 C 5.19 g/m*3 1.86 C 25.7 km/h
28 19-02-2022 02:15:00 6.3 C 5.18 g/m*3 1.57 C 32.2 km/h
29 19-02-2022 02:20:00 6.3 C 5.11 g/m*3 2.98 C 17.7 km/h
30 19-02-2022 02:25:00 6.3 C 5.11 g/m*3 2.61 C 20.9 km/h
31 19-02-2022 02:30:00 6.4 C 5.14 g/m*3 2.73 C 20.9 km/h
32 19-02-2022 02:35:00 6.4 C 5.22 g/m*3 4.08 C 11.3 km/h
33 19-02-2022 02:40:00 6.3 C 5.18 g/m*3 2.79 C 19.3 km/h
34 19-02-2022 02:45:00 6.4 C 5.22 g/m*3 2.73 C 20.9 km/h
35 19-02-2022 02:50:00 6.4 C 5.22 g/m*3 2.25 C 25.7 km/h
36 19-02-2022 02:55:00 6.3 C 5.11 g/m*3 2.61 C 20.9 km/h
37 19-02-2022 03:00:00 6.3 C 5.11 g/m*3 2.61 C 20.9 km/h
38 19-02-2022 03:05:00 6.3 C 5.18 g/m*3 2.98 C 17.7 km/h
39 19-02-2022 03:10:00 6.3 C 5.18 g/m*3 2.98 C 17.7 km/h
40 19-02-2022 03:15:00 6.3 C 5.33 g/m*3 1.97 C 27.4 km/h
41 19-02-2022 03:20:00 6.2 C 5.22 g/m*3 1.7 C 29 km/h
42 19-02-2022 03:25:00 6.1 C 5.19 g/m*3 2.02 C 24.1 km/h
43 19-02-2022 03:30:00 5.9 C 5.12 g/m*3 2.7 C 16.1 km/h
44 19-02-2022 03:35:00 5.8 C 5.16 g/m*3 1.48 C 25.7 km/h
45 19-02-2022 03:40:00 5.8 C 5.16 g/m*3 1.8 C 22.5 km/h
46 19-02-2022 03:45:00 5.7 C 5.12 g/m*3 1.35 C 25.7 km/h
47 19-02-2022 03:50:00 5.7 C 5.19 g/m*3 1.05 C 29 km/h
48 19-02-2022 03:55:00 5.6 C 5.23 g/m*3 0.92 C 29 km/h
49 19-02-2022 04:00:00 5.4 C 5.16 g/m*3 1.66 C 19.3 km/h
50 19-02-2022 04:05:00 5.3 C 5.2 g/m*3 0.83 C 25.7 km/h
Sensor: Nr:Datum:Temp:Abs-Feuchte:Windchill:Wind:
Aussen-T/F 51 19-02-2022 04:10:00 5.3 C 5.27 g/m*3 1.34 C 20.9 km/h
52 19-02-2022 04:15:00 5.2 C 5.23 g/m*3 0.7 C 25.7 km/h
53 19-02-2022 04:20:00 5.2 C 5.23 g/m*3 0 C 33.8 km/h
54 19-02-2022 04:25:00 5.2 C 5.23 g/m*3 0.86 C 24.1 km/h
55 19-02-2022 04:30:00 5.2 C 5.23 g/m*3 1.21 C 20.9 km/h
56 19-02-2022 04:35:00 5.1 C 5.2 g/m*3 0.74 C 24.1 km/h
57 19-02-2022 04:40:00 5.1 C 5.2 g/m*3 1.71 C 16.1 km/h
58 19-02-2022 04:45:00 5 C 5.16 g/m*3 2.39 C 11.3 km/h
59 19-02-2022 04:50:00 4.9 C 5.06 g/m*3 1.24 C 17.7 km/h
60 19-02-2022 04:55:00 4.9 C 5.06 g/m*3 1.24 C 17.7 km/h
61 19-02-2022 05:00:00 4.9 C 5.06 g/m*3 1.24 C 17.7 km/h
62 19-02-2022 05:05:00 4.9 C 5.06 g/m*3 1.97 C 12.9 km/h
63 19-02-2022 05:10:00 4.9 C 5.06 g/m*3 2.99 C 8.1 km/h
64 19-02-2022 05:15:00 4.8 C 5.03 g/m*3 2.15 C 11.3 km/h
65 19-02-2022 05:20:00 4.8 C 5.1 g/m*3 2.87 C 8.1 km/h
66 19-02-2022 05:25:00 4.7 C 5.06 g/m*3 1.73 C 12.9 km/h
67 19-02-2022 05:30:00 4.7 C 5 g/m*3 1.73 C 12.9 km/h
68 19-02-2022 05:35:00 4.8 C 5.03 g/m*3 2.15 C 11.3 km/h
69 19-02-2022 05:40:00 4.8 C 5.03 g/m*3 2.15 C 11.3 km/h
70 19-02-2022 05:45:00 4.9 C 4.93 g/m*3 1.46 C 16.1 km/h
71 19-02-2022 05:50:00 5 C 4.89 g/m*3 1.36 C 17.7 km/h
72 19-02-2022 05:55:00 5.1 C 4.86 g/m*3 0.58 C 25.7 km/h
73 19-02-2022 06:00:00 5.2 C 4.82 g/m*3 1.03 C 22.5 km/h
74 19-02-2022 06:05:00 5.2 C 4.82 g/m*3 1.21 C 20.9 km/h
75 19-02-2022 06:10:00 5.2 C 4.75 g/m*3 2.07 C 14.5 km/h
Sensor: Nr:Datum:Temp:Abs-Feuchte:Windchill:Wind:
Aussen-T/F 76 19-02-2022 06:15:00 5.2 C 4.82 g/m*3 1.83 C 16.1 km/h
77 19-02-2022 06:20:00 5.1 C 4.79 g/m*3 0.91 C 22.5 km/h
78 19-02-2022 06:25:00 5.1 C 4.72 g/m*3 1.49 C 17.7 km/h
79 19-02-2022 06:30:00 5.1 C 4.72 g/m*3 1.71 C 16.1 km/h
80 19-02-2022 06:35:00 5.1 C 4.72 g/m*3 1.49 C 17.7 km/h
81 19-02-2022 06:40:00 5.1 C 4.72 g/m*3 1.71 C 16.1 km/h
82 19-02-2022 06:45:00 5.1 C 4.72 g/m*3 1.28 C 19.3 km/h
83 19-02-2022 06:50:00 5.1 C 4.72 g/m*3 1.95 C 14.5 km/h
84 19-02-2022 06:55:00 5 C 4.69 g/m*3 0.96 C 20.9 km/h
85 19-02-2022 07:00:00 4.9 C 4.66 g/m*3 1.03 C 19.3 km/h
86 19-02-2022 07:05:00 4.9 C 4.73 g/m*3 1.7 C 14.5 km/h
87 19-02-2022 07:10:00 4.8 C 4.69 g/m*3 1.34 C 16.1 km/h
88 19-02-2022 07:15:00 4.7 C 4.73 g/m*3 0.99 C 17.7 km/h
89 19-02-2022 07:20:00 4.7 C 4.73 g/m*3 0.06 C 25.7 km/h
90 19-02-2022 07:25:00 4.7 C 4.73 g/m*3 1.21 C 16.1 km/h
91 19-02-2022 07:30:00 4.7 C 4.73 g/m*3 1.46 C 14.5 km/h
92 19-02-2022 07:35:00 4.7 C 4.66 g/m*3 0.99 C 17.7 km/h
93 19-02-2022 07:40:00 4.7 C 4.73 g/m*3 1.73 C 12.9 km/h
94 19-02-2022 07:45:00 4.6 C 4.7 g/m*3 0.65 C 19.3 km/h
95 19-02-2022 07:50:00 4.6 C 4.7 g/m*3 0.65 C 19.3 km/h
96 19-02-2022 07:55:00 4.6 C 4.7 g/m*3 1.34 C 14.5 km/h
97 19-02-2022 08:00:00 4.5 C 4.73 g/m*3 0.96 C 16.1 km/h
98 19-02-2022 08:05:00 4.4 C 4.7 g/m*3 0.01 C 22.5 km/h
99 19-02-2022 08:10:00 4.5 C 4.73 g/m*3 0.96 C 16.1 km/h
100 19-02-2022 08:15:00 4.6 C 4.7 g/m*3 1.61 C 12.9 km/h
Sensor: Nr:Datum:Temp:Abs-Feuchte:Windchill:Wind:
Aussen-T/F 101 19-02-2022 08:20:00 4.6 C 4.7 g/m*3 0.65 C 19.3 km/h
102 19-02-2022 08:25:00 4.6 C 4.7 g/m*3 1.61 C 12.9 km/h
103 19-02-2022 08:30:00 4.7 C 4.73 g/m*3 1.46 C 14.5 km/h
104 19-02-2022 08:35:00 4.7 C 4.73 g/m*3 1.21 C 16.1 km/h
105 19-02-2022 08:40:00 4.7 C 4.73 g/m*3 0.99 C 17.7 km/h
106 19-02-2022 08:45:00 4.8 C 4.76 g/m*3 1.58 C 14.5 km/h
107 19-02-2022 08:50:00 4.8 C 4.76 g/m*3 1.85 C 12.9 km/h
108 19-02-2022 08:55:00 4.9 C 4.79 g/m*3 0.32 C 25.7 km/h
109 19-02-2022 09:00:00 5 C 4.82 g/m*3 1.36 C 17.7 km/h
110 19-02-2022 09:05:00 5 C 4.82 g/m*3 1.36 C 17.7 km/h
111 19-02-2022 09:10:00 5.1 C 4.86 g/m*3 1.09 C 20.9 km/h
112 19-02-2022 09:15:00 5.2 C 4.89 g/m*3 0.86 C 24.1 km/h
113 19-02-2022 09:20:00 5.3 C 4.85 g/m*3 1.16 C 22.5 km/h
114 19-02-2022 09:25:00 5.3 C 4.85 g/m*3 0.99 C 24.1 km/h
115 19-02-2022 09:30:00 5.4 C 4.88 g/m*3 1.29 C 22.5 km/h
116 19-02-2022 09:35:00 5.5 C 4.92 g/m*3 1.78 C 19.3 km/h
117 19-02-2022 09:40:00 5.5 C 4.92 g/m*3 2.2 C 16.1 km/h
118 19-02-2022 09:45:00 5.4 C 4.95 g/m*3 3.2 C 9.7 km/h
119 19-02-2022 09:50:00 5.4 C 4.95 g/m*3 2.58 C 12.9 km/h
120 19-02-2022 09:55:00 5.4 C 4.95 g/m*3 2.32 C 14.5 km/h
121 19-02-2022 10:00:00 5.5 C 4.99 g/m*3 1.78 C 19.3 km/h
122 19-02-2022 10:05:00 5.6 C 4.95 g/m*3 2.11 C 17.7 km/h
123 19-02-2022 10:10:00 5.7 C 4.98 g/m*3 1.85 C 20.9 km/h
124 19-02-2022 10:15:00 5.8 C 5.01 g/m*3 2.16 C 19.3 km/h
125 19-02-2022 10:20:00 5.8 C 5.01 g/m*3 3.07 C 12.9 km/h
Sensor: Nr:Datum:Temp:Abs-Feuchte:Windchill:Wind:
Aussen-T/F 126 19-02-2022 10:25:00 5.9 C 4.98 g/m*3 1.93 C 22.5 km/h
127 19-02-2022 10:30:00 6 C 5.01 g/m*3 2.41 C 19.3 km/h
128 19-02-2022 10:35:00 6.1 C 5.04 g/m*3 2.73 C 17.7 km/h
129 19-02-2022 10:40:00 6.2 C 5.07 g/m*3 2.31 C 22.5 km/h
130 19-02-2022 10:45:00 6.3 C 5.11 g/m*3 2.98 C 17.7 km/h
131 19-02-2022 10:50:00 6.3 C 5.11 g/m*3 2.98 C 17.7 km/h
132 19-02-2022 10:55:00 6.3 C 5.03 g/m*3 2.12 C 25.7 km/h
133 19-02-2022 11:00:00 6.4 C 5.14 g/m*3 3.32 C 16.1 km/h
134 19-02-2022 11:05:00 6.4 C 5.14 g/m*3 2.73 C 20.9 km/h
135 19-02-2022 11:10:00 6.6 C 5.06 g/m*3 3.57 C 16.1 km/h
136 19-02-2022 11:15:00 6.6 C 5.06 g/m*3 2.99 C 20.9 km/h
137 19-02-2022 11:20:00 6.7 C 5.09 g/m*3 3.69 C 16.1 km/h
138 19-02-2022 11:25:00 6.8 C 5.05 g/m*3 2.76 C 25.7 km/h
139 19-02-2022 11:30:00 6.9 C 5.16 g/m*3 3.37 C 20.9 km/h
140 19-02-2022 11:35:00 7.1 C 5.3 g/m*3 3.62 C 20.9 km/h
141 19-02-2022 11:40:00 7.2 C 5.34 g/m*3 3.28 C 25.7 km/h
142 19-02-2022 11:45:00 6.9 C 5.39 g/m*3 3.04 C 24.1 km/h
143 19-02-2022 11:50:00 6.8 C 5.51 g/m*3 3.82 C 16.1 km/h
144 19-02-2022 11:55:00 6.7 C 5.55 g/m*3 3.69 C 16.1 km/h
145 19-02-2022 12:00:00 6.8 C 5.58 g/m*3 3.61 C 17.7 km/h
146 19-02-2022 12:05:00 6.8 C 5.66 g/m*3 2.76 C 25.7 km/h
147 19-02-2022 12:10:00 6.8 C 5.66 g/m*3 3.82 C 16.1 km/h
148 19-02-2022 12:15:00 6.9 C 5.7 g/m*3 3.37 C 20.9 km/h
149 19-02-2022 12:20:00 7 C 5.81 g/m*3 3.86 C 17.7 km/h
150 19-02-2022 12:25:00 7 C 5.81 g/m*3 3.86 C 17.7 km/h
Sensor: Nr:Datum:Temp:Abs-Feuchte:Windchill:Wind:
Aussen-T/F 151 19-02-2022 12:30:00 7.1 C 5.69 g/m*3 3.98 C 17.7 km/h
152 19-02-2022 12:35:00 7.1 C 5.62 g/m*3 3.98 C 17.7 km/h
153 19-02-2022 12:40:00 7.1 C 5.46 g/m*3 3 C 27.4 km/h
154 19-02-2022 12:45:00 7.2 C 5.42 g/m*3 3.28 C 25.7 km/h
155 19-02-2022 12:50:00 7.3 C 5.45 g/m*3 3.87 C 20.9 km/h
156 19-02-2022 12:55:00 7.7 C 5.51 g/m*3 5.38 C 12.9 km/h
157 19-02-2022 13:00:00 7.9 C 5.34 g/m*3 4.32 C 24.1 km/h
158 19-02-2022 13:05:00 8.1 C 5.41 g/m*3 4.58 C 24.1 km/h
159 19-02-2022 13:10:00 8.2 C 5.36 g/m*3 4.57 C 25.7 km/h
160 19-02-2022 13:15:00 8.3 C 5.39 g/m*3 5.48 C 17.7 km/h
161 19-02-2022 13:20:00 8.3 C 5.39 g/m*3 5.68 C 16.1 km/h
162 19-02-2022 13:25:00 8.3 C 5.31 g/m*3 6.12 C 12.9 km/h
163 19-02-2022 13:30:00 8.3 C 5.39 g/m*3 5.89 C 14.5 km/h
164 19-02-2022 13:35:00 8.5 C 5.38 g/m*3 5.09 C 24.1 km/h
165 19-02-2022 13:40:00 8.7 C 5.36 g/m*3 5.81 C 19.3 km/h
166 19-02-2022 13:45:00 8.7 C 5.28 g/m*3 6.17 C 16.1 km/h
167 19-02-2022 13:50:00 8.4 C 5.26 g/m*3 5.61 C 17.7 km/h
168 19-02-2022 13:55:00 8.2 C 5.28 g/m*3 5.18 C 19.3 km/h
169 19-02-2022 14:00:00 8.2 C 5.36 g/m*3 5.99 C 12.9 km/h
170 19-02-2022 14:05:00 8.1 C 5.33 g/m*3 5.64 C 14.5 km/h
171 19-02-2022 14:10:00 8.1 C 5.41 g/m*3 5.05 C 19.3 km/h
172 19-02-2022 14:15:00 8.1 C 5.41 g/m*3 5.43 C 16.1 km/h
173 19-02-2022 14:20:00 8.1 C 5.41 g/m*3 5.05 C 19.3 km/h
174 19-02-2022 14:25:00 8.1 C 5.41 g/m*3 5.43 C 16.1 km/h
175 19-02-2022 14:30:00 8 C 5.37 g/m*3 5.3 C 16.1 km/h
Sensor: Nr:Datum:Temp:Abs-Feuchte:Windchill:Wind:
Aussen-T/F 176 19-02-2022 14:35:00 7.9 C 5.34 g/m*3 4.98 C 17.7 km/h
177 19-02-2022 14:40:00 7.8 C 5.22 g/m*3 4.35 C 22.5 km/h
178 19-02-2022 14:45:00 7.8 C 5.3 g/m*3 5.27 C 14.5 km/h
179 19-02-2022 14:50:00 7.7 C 5.19 g/m*3 3.92 C 25.7 km/h
180 19-02-2022 14:55:00 7.6 C 5.24 g/m*3 4.09 C 22.5 km/h
181 19-02-2022 15:00:00 7.4 C 5.17 g/m*3 4.17 C 19.3 km/h
182 19-02-2022 15:05:00 7.3 C 5.21 g/m*3 4.66 C 14.5 km/h
183 19-02-2022 15:10:00 7.3 C 5.21 g/m*3 4.23 C 17.7 km/h
184 19-02-2022 15:15:00 7.3 C 5.21 g/m*3 4.44 C 16.1 km/h
185 19-02-2022 15:20:00 7.3 C 5.21 g/m*3 3.87 C 20.9 km/h
186 19-02-2022 15:25:00 7.3 C 5.21 g/m*3 4.05 C 19.3 km/h
187 19-02-2022 15:30:00 7.3 C 5.21 g/m*3 4.66 C 14.5 km/h
188 19-02-2022 15:35:00 7.3 C 5.21 g/m*3 3.87 C 20.9 km/h
189 19-02-2022 15:40:00 7.3 C 5.21 g/m*3 4.66 C 14.5 km/h
190 19-02-2022 15:45:00 7.3 C 5.21 g/m*3 3.87 C 20.9 km/h
191 19-02-2022 15:50:00 7.5 C 5.36 g/m*3 5.14 C 12.9 km/h
192 19-02-2022 15:55:00 8.1 C 5.33 g/m*3 5.43 C 16.1 km/h
193 19-02-2022 16:00:00 8.4 C 5.26 g/m*3 5.61 C 17.7 km/h
194 19-02-2022 16:05:00 8.7 C 5.36 g/m*3 6.38 C 14.5 km/h
195 19-02-2022 16:10:00 8.7 C 5.36 g/m*3 5.98 C 17.7 km/h
196 19-02-2022 16:15:00 8.8 C 5.4 g/m*3 6.11 C 17.7 km/h
197 19-02-2022 16:20:00 8.7 C 5.36 g/m*3 6.38 C 14.5 km/h
198 19-02-2022 16:25:00 8.7 C 5.36 g/m*3 6.38 C 14.5 km/h
199 19-02-2022 16:30:00 8.3 C 5.31 g/m*3 5.68 C 16.1 km/h
200 19-02-2022 16:35:00 8.1 C 5.41 g/m*3 5.64 C 14.5 km/h
Sensor: Nr:Datum:Temp:Abs-Feuchte:Windchill:Wind:
Aussen-T/F 201 19-02-2022 16:40:00 7.8 C 5.39 g/m*3 6.06 C 9.7 km/h
202 19-02-2022 16:45:00 7.6 C 5.32 g/m*3 6.6 C 6.4 km/h
203 19-02-2022 16:50:00 7.6 C 5.4 g/m*3 7.6 C 3.2 km/h
204 19-02-2022 16:55:00 7.4 C 5.33 g/m*3 5.58 C 9.7 km/h
205 19-02-2022 17:00:00 7.4 C 5.33 g/m*3 5.58 C 9.7 km/h
206 19-02-2022 17:05:00 7.4 C 5.33 g/m*3 4.78 C 14.5 km/h
207 19-02-2022 17:10:00 7.4 C 5.41 g/m*3 6.37 C 6.4 km/h
208 19-02-2022 17:15:00 7.3 C 5.29 g/m*3 6.25 C 6.4 km/h
209 19-02-2022 17:20:00 7.3 C 5.29 g/m*3 5.81 C 8.1 km/h
210 19-02-2022 17:25:00 7.2 C 5.34 g/m*3 7.2 C 4.8 km/h
211 19-02-2022 17:30:00 7.1 C 5.23 g/m*3 4.19 C 16.1 km/h
212 19-02-2022 17:35:00 6.9 C 5.16 g/m*3 5.34 C 8.1 km/h
213 19-02-2022 17:40:00 6.8 C 5.12 g/m*3 4.29 C 12.9 km/h
214 19-02-2022 17:45:00 6.7 C 5.17 g/m*3 5.56 C 6.4 km/h
215 19-02-2022 17:50:00 6.7 C 5.17 g/m*3 5.11 C 8.1 km/h
216 19-02-2022 17:55:00 6.6 C 5.13 g/m*3 5.44 C 6.4 km/h
217 19-02-2022 18:00:00 6.6 C 5.06 g/m*3 4.32 C 11.3 km/h
218 19-02-2022 18:05:00 6.6 C 5.13 g/m*3 6.6 C 1.6 km/h
219 19-02-2022 18:10:00 6.5 C 5.02 g/m*3 6.5 C 1.6 km/h
220 19-02-2022 18:15:00 6.4 C 5.14 g/m*3 6.4 C 4.8 km/h
221 19-02-2022 18:20:00 6.3 C 5.11 g/m*3 6.3 C 3.2 km/h
222 19-02-2022 18:25:00 6.2 C 5 g/m*3 4.98 C 6.4 km/h
223 19-02-2022 18:30:00 6.4 C 5.14 g/m*3 3.55 C 14.5 km/h
224 19-02-2022 18:35:00 6.6 C 5.13 g/m*3 6.6 C 4.8 km/h
225 19-02-2022 18:40:00 6.6 C 5.13 g/m*3 5.44 C 6.4 km/h
Sensor: Nr:Datum:Temp:Abs-Feuchte:Windchill:Wind:
Aussen-T/F 226 19-02-2022 18:45:00 6.6 C 5.13 g/m*3 6.6 C 4.8 km/h
227 19-02-2022 18:50:00 6.6 C 5.13 g/m*3 6.6 C 3.2 km/h
228 19-02-2022 18:55:00 6.6 C 5.13 g/m*3 6.6 C 4.8 km/h
229 19-02-2022 19:00:00 6.6 C 5.13 g/m*3 6.6 C 4.8 km/h
230 19-02-2022 19:05:00 6.6 C 5.13 g/m*3 6.6 C 4.8 km/h
231 19-02-2022 19:10:00 6.6 C 5.13 g/m*3 5.44 C 6.4 km/h
232 19-02-2022 19:15:00 6.6 C 5.06 g/m*3 6.6 C 4.8 km/h
233 19-02-2022 19:20:00 6.6 C 5.06 g/m*3 4.99 C 8.1 km/h
234 19-02-2022 19:25:00 6.6 C 5.06 g/m*3 4.99 C 8.1 km/h
235 19-02-2022 19:30:00 6.6 C 5.06 g/m*3 4.63 C 9.7 km/h
236 19-02-2022 19:35:00 6.7 C 5.01 g/m*3 3.48 C 17.7 km/h
237 19-02-2022 19:40:00 6.8 C 5.05 g/m*3 6.8 C 4.8 km/h
238 19-02-2022 19:45:00 6.9 C 5.08 g/m*3 4.68 C 11.3 km/h
239 19-02-2022 19:50:00 6.9 C 5 g/m*3 4.41 C 12.9 km/h
240 19-02-2022 19:55:00 7 C 5.11 g/m*3 5.11 C 9.7 km/h
241 19-02-2022 20:00:00 7 C 5.11 g/m*3 4.06 C 16.1 km/h
242 19-02-2022 20:05:00 7.1 C 5.07 g/m*3 4.65 C 12.9 km/h
243 19-02-2022 20:10:00 7.2 C 5.1 g/m*3 3.58 C 22.5 km/h
244 19-02-2022 20:15:00 7.2 C 5.1 g/m*3 3.75 C 20.9 km/h
245 19-02-2022 20:20:00 7.3 C 5.14 g/m*3 3.41 C 25.7 km/h
246 19-02-2022 20:25:00 7.3 C 5.14 g/m*3 3.55 C 24.1 km/h
247 19-02-2022 20:30:00 7.3 C 5.14 g/m*3 4.66 C 14.5 km/h
248 19-02-2022 20:35:00 7.3 C 5.21 g/m*3 3.55 C 24.1 km/h
249 19-02-2022 20:40:00 7.3 C 5.21 g/m*3 3.55 C 24.1 km/h
250 19-02-2022 20:45:00 7.4 C 5.25 g/m*3 4 C 20.9 km/h
Sensor: Nr:Datum:Temp:Abs-Feuchte:Windchill:Wind:
Aussen-T/F 251 19-02-2022 20:50:00 7.4 C 5.17 g/m*3 3.68 C 24.1 km/h
252 19-02-2022 20:55:00 7.5 C 5.28 g/m*3 3.81 C 24.1 km/h
253 19-02-2022 21:00:00 7.4 C 5.25 g/m*3 3.68 C 24.1 km/h
254 19-02-2022 21:05:00 7.4 C 5.33 g/m*3 3.54 C 25.7 km/h
255 19-02-2022 21:10:00 7.4 C 5.41 g/m*3 4 C 20.9 km/h
256 19-02-2022 21:15:00 7.3 C 5.53 g/m*3 4.23 C 17.7 km/h
257 19-02-2022 21:20:00 7.1 C 5.54 g/m*3 3 C 27.4 km/h
258 19-02-2022 21:25:00 6.9 C 5.62 g/m*3 3.04 C 24.1 km/h
259 19-02-2022 21:30:00 6.7 C 5.62 g/m*3 3.11 C 20.9 km/h
260 19-02-2022 21:35:00 6.6 C 5.66 g/m*3 2.51 C 25.7 km/h
261 19-02-2022 21:40:00 6.5 C 5.77 g/m*3 2.53 C 24.1 km/h
262 19-02-2022 21:45:00 6.3 C 5.77 g/m*3 2.27 C 24.1 km/h
263 19-02-2022 21:50:00 6.2 C 5.74 g/m*3 2.15 C 24.1 km/h
264 19-02-2022 21:55:00 6.2 C 5.81 g/m*3 1.99 C 25.7 km/h
265 19-02-2022 22:00:00 6.1 C 5.84 g/m*3 2.18 C 22.5 km/h
266 19-02-2022 22:05:00 6.1 C 5.84 g/m*3 2.35 C 20.9 km/h
267 19-02-2022 22:10:00 6 C 5.81 g/m*3 3.31 C 12.9 km/h
268 19-02-2022 22:15:00 5.9 C 5.77 g/m*3 2.93 C 14.5 km/h
269 19-02-2022 22:20:00 5.9 C 5.77 g/m*3 2.1 C 20.9 km/h
270 19-02-2022 22:25:00 5.9 C 5.77 g/m*3 1.93 C 22.5 km/h
271 19-02-2022 22:30:00 5.9 C 5.77 g/m*3 2.29 C 19.3 km/h
272 19-02-2022 22:35:00 5.8 C 5.73 g/m*3 2.81 C 14.5 km/h
273 19-02-2022 22:40:00 5.8 C 5.73 g/m*3 2.58 C 16.1 km/h
274 19-02-2022 22:45:00 5.8 C 5.73 g/m*3 1.97 C 20.9 km/h
275 19-02-2022 22:50:00 5.8 C 5.8 g/m*3 1.48 C 25.7 km/h
Sensor: Nr:Datum:Temp:Abs-Feuchte:Windchill:Wind:
Aussen-T/F 276 19-02-2022 22:55:00 5.8 C 5.8 g/m*3 1.48 C 25.7 km/h
277 19-02-2022 23:00:00 5.9 C 5.84 g/m*3 0.93 C 33.8 km/h
278 19-02-2022 23:05:00 5.9 C 5.77 g/m*3 1.93 C 22.5 km/h
279 19-02-2022 23:10:00 6 C 5.81 g/m*3 2.23 C 20.9 km/h
280 19-02-2022 23:15:00 6.1 C 5.84 g/m*3 2.35 C 20.9 km/h
281 19-02-2022 23:20:00 6.1 C 5.84 g/m*3 2.54 C 19.3 km/h
282 19-02-2022 23:25:00 6.1 C 5.92 g/m*3 0.96 C 37 km/h
283 19-02-2022 23:30:00 6.1 C 5.92 g/m*3 2.35 C 20.9 km/h
284 19-02-2022 23:35:00 6.1 C 5.92 g/m*3 2.18 C 22.5 km/h
285 19-02-2022 23:40:00 6.2 C 5.96 g/m*3 1.44 C 32.2 km/h
286 19-02-2022 23:45:00 6.2 C 5.96 g/m*3 1.99 C 25.7 km/h
287 19-02-2022 23:50:00 6.3 C 6 g/m*3 1.83 C 29 km/h
288 19-02-2022 23:55:00 6.4 C 6.04 g/m*3 2.4 C 24.1 km/h
289 20-02-2022 00:00:00 6.4 C 6.04 g/m*3 2.1 C 27.4 km/h
290 20-02-2022 00:05:00 6.4 C 6.04 g/m*3 1.83 C 30.6 km/h
291 20-02-2022 00:10:00 6.5 C 6.07 g/m*3 2.53 C 24.1 km/h
292 20-02-2022 00:15:00 6.5 C 6.07 g/m*3 2.38 C 25.7 km/h
293 20-02-2022 00:20:00 6.6 C 6.11 g/m*3 3.17 C 19.3 km/h
294 20-02-2022 00:25:00 6.6 C 6.11 g/m*3 2.66 C 24.1 km/h
295 20-02-2022 00:30:00 6.6 C 6.11 g/m*3 2.82 C 22.5 km/h
296 20-02-2022 00:35:00 6.6 C 6.11 g/m*3 3.17 C 19.3 km/h
297 20-02-2022 00:40:00 6.6 C 6.11 g/m*3 2.99 C 20.9 km/h
298 20-02-2022 00:45:00 6.6 C 6.11 g/m*3 2.99 C 20.9 km/h
299 20-02-2022 00:50:00 6.6 C 6.19 g/m*3 2.36 C 27.4 km/h
300 20-02-2022 00:55:00 6.6 C 6.19 g/m*3 3.36 C 17.7 km/h
Sensor: Nr:Datum:Temp:Abs-Feuchte:Windchill:Wind:
Aussen-T/F 301 20-02-2022 01:00:00 6.6 C 6.19 g/m*3 2.51 C 25.7 km/h
302 20-02-2022 01:05:00 6.7 C 6.23 g/m*3 2.64 C 25.7 km/h
303 20-02-2022 01:10:00 6.7 C 6.23 g/m*3 3.11 C 20.9 km/h
304 20-02-2022 01:15:00 6.7 C 6.23 g/m*3 3.48 C 17.7 km/h
305 20-02-2022 01:20:00 6.8 C 6.27 g/m*3 3.24 C 20.9 km/h
306 20-02-2022 01:25:00 6.8 C 6.27 g/m*3 3.07 C 22.5 km/h
307 20-02-2022 01:30:00 6.8 C 6.27 g/m*3 3.61 C 17.7 km/h
308 20-02-2022 01:35:00 6.9 C 6.31 g/m*3 3.54 C 19.3 km/h
309 20-02-2022 01:40:00 6.9 C 6.31 g/m*3 3.54 C 19.3 km/h
310 20-02-2022 01:45:00 6.9 C 6.39 g/m*3 3.73 C 17.7 km/h
311 20-02-2022 01:50:00 6.9 C 6.39 g/m*3 3.94 C 16.1 km/h
312 20-02-2022 01:55:00 7 C 6.35 g/m*3 3.49 C 20.9 km/h
313 20-02-2022 02:00:00 7.1 C 6.4 g/m*3 3 C 27.4 km/h
314 20-02-2022 02:05:00 7.2 C 6.44 g/m*3 3.92 C 19.3 km/h
315 20-02-2022 02:10:00 7.3 C 6.48 g/m*3 4.05 C 19.3 km/h
316 20-02-2022 02:15:00 7.3 C 6.48 g/m*3 4.23 C 17.7 km/h
317 20-02-2022 02:20:00 7.3 C 6.56 g/m*3 4.23 C 17.7 km/h
318 20-02-2022 02:25:00 7.2 C 6.59 g/m*3 3.75 C 20.9 km/h
319 20-02-2022 02:30:00 7.1 C 6.63 g/m*3 4.65 C 12.9 km/h
320 20-02-2022 02:35:00 7.1 C 6.63 g/m*3 4.41 C 14.5 km/h
321 20-02-2022 02:40:00 7 C 6.59 g/m*3 3.86 C 17.7 km/h
322 20-02-2022 02:45:00 7 C 6.59 g/m*3 4.06 C 16.1 km/h
323 20-02-2022 02:50:00 7 C 6.59 g/m*3 3.49 C 20.9 km/h
324 20-02-2022 02:55:00 7.1 C 6.63 g/m*3 3.8 C 19.3 km/h
325 20-02-2022 03:00:00 7.1 C 6.63 g/m*3 4.19 C 16.1 km/h
Sensor: Nr:Datum:Temp:Abs-Feuchte:Windchill:Wind:
Aussen-T/F 326 20-02-2022 03:05:00 7.1 C 6.63 g/m*3 3 C 27.4 km/h
327 20-02-2022 03:10:00 7.1 C 6.63 g/m*3 3.15 C 25.7 km/h
328 20-02-2022 03:15:00 7.1 C 6.55 g/m*3 3.62 C 20.9 km/h
329 20-02-2022 03:20:00 7.1 C 6.55 g/m*3 3.8 C 19.3 km/h
330 20-02-2022 03:25:00 7.1 C 6.63 g/m*3 3.98 C 17.7 km/h
331 20-02-2022 03:30:00 7 C 6.59 g/m*3 3.17 C 24.1 km/h
332 20-02-2022 03:35:00 7.1 C 6.63 g/m*3 3.62 C 20.9 km/h
333 20-02-2022 03:40:00 7 C 6.59 g/m*3 3.49 C 20.9 km/h
334 20-02-2022 03:45:00 6.9 C 6.54 g/m*3 3.73 C 17.7 km/h
335 20-02-2022 03:50:00 6.9 C 6.62 g/m*3 4.41 C 12.9 km/h
336 20-02-2022 03:55:00 6.8 C 6.58 g/m*3 3.42 C 19.3 km/h
337 20-02-2022 04:00:00 6.8 C 6.58 g/m*3 3.24 C 20.9 km/h
338 20-02-2022 04:05:00 6.8 C 6.58 g/m*3 3.82 C 16.1 km/h
339 20-02-2022 04:10:00 6.8 C 6.5 g/m*3 3.82 C 16.1 km/h
340 20-02-2022 04:15:00 6.9 C 6.54 g/m*3 2.89 C 25.7 km/h
341 20-02-2022 04:20:00 7.1 C 6.63 g/m*3 3.45 C 22.5 km/h
342 20-02-2022 04:25:00 7.2 C 6.67 g/m*3 3.43 C 24.1 km/h
343 20-02-2022 04:30:00 7.3 C 6.64 g/m*3 3.01 C 30.6 km/h
344 20-02-2022 04:35:00 7.4 C 6.76 g/m*3 3.26 C 29 km/h
345 20-02-2022 04:40:00 7.3 C 6.79 g/m*3 3.87 C 20.9 km/h
346 20-02-2022 04:45:00 7.2 C 6.75 g/m*3 4.11 C 17.7 km/h
347 20-02-2022 04:50:00 7 C 6.66 g/m*3 3.49 C 20.9 km/h
348 20-02-2022 04:55:00 6.8 C 6.58 g/m*3 4.87 C 9.7 km/h
349 20-02-2022 05:00:00 6.7 C 6.61 g/m*3 3.92 C 14.5 km/h
350 20-02-2022 05:05:00 6.7 C 6.61 g/m*3 3.69 C 16.1 km/h
Sensor: Nr:Datum:Temp:Abs-Feuchte:Windchill:Wind:
Aussen-T/F 351 20-02-2022 05:10:00 6.7 C 6.61 g/m*3 4.44 C 11.3 km/h
352 20-02-2022 05:15:00 6.6 C 6.57 g/m*3 4.99 C 8.1 km/h
353 20-02-2022 05:20:00 6.5 C 6.52 g/m*3 4.2 C 11.3 km/h
354 20-02-2022 05:25:00 6.5 C 6.52 g/m*3 4.51 C 9.7 km/h
355 20-02-2022 05:30:00 6.4 C 6.48 g/m*3 4.08 C 11.3 km/h
356 20-02-2022 05:35:00 6.4 C 6.48 g/m*3 4.39 C 9.7 km/h
357 20-02-2022 05:40:00 6.4 C 6.48 g/m*3 4.08 C 11.3 km/h
358 20-02-2022 05:45:00 6.4 C 6.48 g/m*3 3.55 C 14.5 km/h
359 20-02-2022 05:50:00 6.6 C 6.57 g/m*3 3.79 C 14.5 km/h
360 20-02-2022 05:55:00 6.7 C 6.53 g/m*3 3.29 C 19.3 km/h
361 20-02-2022 06:00:00 6.7 C 6.53 g/m*3 3.92 C 14.5 km/h
362 20-02-2022 06:05:00 6.7 C 6.53 g/m*3 4.17 C 12.9 km/h
363 20-02-2022 06:10:00 6.7 C 6.53 g/m*3 3.92 C 14.5 km/h
364 20-02-2022 06:15:00 6.7 C 6.46 g/m*3 3.69 C 16.1 km/h
365 20-02-2022 06:20:00 6.8 C 6.5 g/m*3 4.29 C 12.9 km/h
366 20-02-2022 06:25:00 6.9 C 6.54 g/m*3 3.94 C 16.1 km/h
367 20-02-2022 06:30:00 7 C 6.59 g/m*3 4.06 C 16.1 km/h
368 20-02-2022 06:35:00 7.1 C 6.63 g/m*3 4.65 C 12.9 km/h
369 20-02-2022 06:40:00 7.1 C 6.63 g/m*3 6.02 C 6.4 km/h
370 20-02-2022 06:45:00 7 C 6.59 g/m*3 4.06 C 16.1 km/h
371 20-02-2022 06:50:00 7 C 6.66 g/m*3 4.8 C 11.3 km/h
372 20-02-2022 06:55:00 7.1 C 6.71 g/m*3 4.19 C 16.1 km/h
373 20-02-2022 07:00:00 7.2 C 6.75 g/m*3 4.53 C 14.5 km/h
374 20-02-2022 07:05:00 7.3 C 6.79 g/m*3 4.66 C 14.5 km/h
375 20-02-2022 07:10:00 7.3 C 6.79 g/m*3 4.9 C 12.9 km/h
Sensor: Nr:Datum:Temp:Abs-Feuchte:Windchill:Wind:
Aussen-T/F 376 20-02-2022 07:15:00 7.4 C 6.76 g/m*3 5.28 C 11.3 km/h
377 20-02-2022 07:20:00 7.5 C 6.8 g/m*3 5.41 C 11.3 km/h
378 20-02-2022 07:25:00 7.6 C 6.85 g/m*3 5.53 C 11.3 km/h
379 20-02-2022 07:30:00 7.6 C 6.85 g/m*3 6.16 C 8.1 km/h
380 20-02-2022 07:35:00 7.7 C 6.89 g/m*3 5.38 C 12.9 km/h
381 20-02-2022 07:40:00 7.8 C 6.94 g/m*3 5.51 C 12.9 km/h
382 20-02-2022 07:45:00 7.8 C 6.94 g/m*3 4.86 C 17.7 km/h
383 20-02-2022 07:50:00 7.9 C 6.98 g/m*3 5.39 C 14.5 km/h
384 20-02-2022 07:55:00 7.9 C 6.98 g/m*3 5.89 C 11.3 km/h
385 20-02-2022 08:00:00 8 C 7.03 g/m*3 5.75 C 12.9 km/h
386 20-02-2022 08:05:00 8 C 7.03 g/m*3 6.3 C 9.7 km/h
387 20-02-2022 08:10:00 8.1 C 7.07 g/m*3 5.43 C 16.1 km/h
388 20-02-2022 08:15:00 8.2 C 7.12 g/m*3 5.76 C 14.5 km/h
389 20-02-2022 08:20:00 8.2 C 7.12 g/m*3 5.76 C 14.5 km/h
390 20-02-2022 08:25:00 8.2 C 7.12 g/m*3 6.54 C 9.7 km/h
391 20-02-2022 08:30:00 8.2 C 7.12 g/m*3 6.25 C 11.3 km/h
392 20-02-2022 08:35:00 8.3 C 7.16 g/m*3 6.37 C 11.3 km/h
393 20-02-2022 08:40:00 8.3 C 7.16 g/m*3 5.68 C 16.1 km/h
394 20-02-2022 08:45:00 8.4 C 7.21 g/m*3 5.8 C 16.1 km/h
395 20-02-2022 08:50:00 8.4 C 7.21 g/m*3 5.8 C 16.1 km/h
396 20-02-2022 08:55:00 8.5 C 7.26 g/m*3 5.39 C 20.9 km/h
397 20-02-2022 09:00:00 8.6 C 7.3 g/m*3 5.68 C 19.3 km/h
398 20-02-2022 09:05:00 8.7 C 7.26 g/m*3 5.65 C 20.9 km/h
399 20-02-2022 09:10:00 8.7 C 7.26 g/m*3 5.65 C 20.9 km/h
400 20-02-2022 09:15:00 8.8 C 7.31 g/m*3 5.77 C 20.9 km/h
Sensor: Nr:Datum:Temp:Abs-Feuchte:Windchill:Wind:
Aussen-T/F 401 20-02-2022 09:20:00 8.8 C 7.31 g/m*3 6.5 C 14.5 km/h
402 20-02-2022 09:25:00 8.8 C 7.31 g/m*3 6.11 C 17.7 km/h
403 20-02-2022 09:30:00 8.8 C 7.31 g/m*3 6.11 C 17.7 km/h
404 20-02-2022 09:35:00 8.9 C 7.36 g/m*3 5.1 C 30.6 km/h
405 20-02-2022 09:40:00 8.9 C 7.36 g/m*3 5.47 C 25.7 km/h
406 20-02-2022 09:45:00 8.9 C 7.36 g/m*3 5.6 C 24.1 km/h
407 20-02-2022 09:50:00 8.9 C 7.45 g/m*3 5.6 C 24.1 km/h
408 20-02-2022 09:55:00 8.9 C 7.36 g/m*3 5.33 C 27.4 km/h
409 20-02-2022 10:00:00 9 C 7.49 g/m*3 6.36 C 17.7 km/h
410 20-02-2022 10:05:00 9.1 C 7.54 g/m*3 5.86 C 24.1 km/h
411 20-02-2022 10:10:00 9.1 C 7.54 g/m*3 5.59 C 27.4 km/h
412 20-02-2022 10:15:00 9.1 C 7.54 g/m*3 5.73 C 25.7 km/h
413 20-02-2022 10:20:00 9.1 C 7.54 g/m*3 5.86 C 24.1 km/h
414 20-02-2022 10:25:00 9.1 C 7.54 g/m*3 5.73 C 25.7 km/h
415 20-02-2022 10:30:00 9.1 C 7.54 g/m*3 6 C 22.5 km/h
416 20-02-2022 10:35:00 9.2 C 7.59 g/m*3 5.72 C 27.4 km/h
417 20-02-2022 10:40:00 9.2 C 7.59 g/m*3 5.6 C 29 km/h
418 20-02-2022 10:45:00 9.2 C 7.59 g/m*3 5.38 C 32.2 km/h
419 20-02-2022 10:50:00 9.3 C 7.64 g/m*3 5.73 C 29 km/h
420 20-02-2022 10:55:00 9.3 C 7.64 g/m*3 5.98 C 25.7 km/h
421 20-02-2022 11:00:00 9.3 C 7.64 g/m*3 5.98 C 25.7 km/h
422 20-02-2022 11:05:00 9.4 C 7.6 g/m*3 6.25 C 24.1 km/h
423 20-02-2022 11:10:00 9.5 C 7.65 g/m*3 6.66 C 20.9 km/h
424 20-02-2022 11:15:00 9.6 C 7.69 g/m*3 6.37 C 25.7 km/h
425 20-02-2022 11:20:00 9.6 C 7.69 g/m*3 6.37 C 25.7 km/h
Sensor: Nr:Datum:Temp:Abs-Feuchte:Windchill:Wind:
Aussen-T/F 426 20-02-2022 11:25:00 9.6 C 7.69 g/m*3 6.79 C 20.9 km/h
427 20-02-2022 11:30:00 9.6 C 7.69 g/m*3 7.11 C 17.7 km/h
428 20-02-2022 11:35:00 9.6 C 7.69 g/m*3 6.5 C 24.1 km/h
429 20-02-2022 11:40:00 9.6 C 7.69 g/m*3 6.37 C 25.7 km/h
430 20-02-2022 11:45:00 9.6 C 7.69 g/m*3 7.11 C 17.7 km/h
431 20-02-2022 11:50:00 9.6 C 7.69 g/m*3 6.37 C 25.7 km/h
432 20-02-2022 11:55:00 9.6 C 7.79 g/m*3 6.5 C 24.1 km/h
433 20-02-2022 12:00:00 9.7 C 7.84 g/m*3 6.63 C 24.1 km/h
434 20-02-2022 12:05:00 9.7 C 7.84 g/m*3 6.91 C 20.9 km/h
435 20-02-2022 12:10:00 9.7 C 7.74 g/m*3 7.41 C 16.1 km/h
436 20-02-2022 12:15:00 9.7 C 7.74 g/m*3 6.37 C 27.4 km/h
437 20-02-2022 12:20:00 9.8 C 7.89 g/m*3 7.04 C 20.9 km/h
438 20-02-2022 12:25:00 9.8 C 7.89 g/m*3 6.63 C 25.7 km/h
439 20-02-2022 12:30:00 9.9 C 7.84 g/m*3 7.02 C 22.5 km/h
440 20-02-2022 12:35:00 10 C 7.89 g/m*3 7.29 C 20.9 km/h
441 20-02-2022 12:40:00 10 C 7.89 g/m*3 6.64 C 29 km/h
442 20-02-2022 12:45:00 10.1 C 7.94 g/m*3 6.77 C 29 km/h
443 20-02-2022 12:50:00 10.3 C 8.04 g/m*3 6.63 C 35.4 km/h
444 20-02-2022 12:55:00 10.5 C 8.05 g/m*3 6.89 C 35.4 km/h
445 20-02-2022 13:00:00 10.6 C 8.1 g/m*3 8.36 C 17.7 km/h
446 20-02-2022 13:05:00 10.6 C 8.1 g/m*3 7.22 C 32.2 km/h
447 20-02-2022 13:10:00 10.6 C 8 g/m*3 7.54 C 27.4 km/h
448 20-02-2022 13:15:00 10.7 C 8.15 g/m*3 7.79 C 25.7 km/h
449 20-02-2022 13:20:00 10.7 C 8.05 g/m*3 7.45 C 30.6 km/h
450 20-02-2022 13:25:00 10.7 C 8.15 g/m*3 7.25 C 33.8 km/h
Sensor: Nr:Datum:Temp:Abs-Feuchte:Windchill:Wind:
Aussen-T/F 451 20-02-2022 13:30:00 10.7 C 8.15 g/m*3 8.32 C 19.3 km/h
452 20-02-2022 13:35:00 10.7 C 8.15 g/m*3 7.79 C 25.7 km/h
453 20-02-2022 13:40:00 10.7 C 8.15 g/m*3 8.32 C 19.3 km/h
454 20-02-2022 13:45:00 10.6 C 8.2 g/m*3 8.2 C 19.3 km/h
455 20-02-2022 13:50:00 10.5 C 8.15 g/m*3 7.92 C 20.9 km/h
456 20-02-2022 13:55:00 10.4 C 8.19 g/m*3 7.95 C 19.3 km/h
457 20-02-2022 14:00:00 10.3 C 8.24 g/m*3 7.67 C 20.9 km/h
458 20-02-2022 14:05:00 10.2 C 8.28 g/m*3 7.4 C 22.5 km/h
459 20-02-2022 14:10:00 10 C 8.17 g/m*3 6.89 C 25.7 km/h
460 20-02-2022 14:15:00 9.9 C 8.12 g/m*3 6.89 C 24.1 km/h
461 20-02-2022 14:20:00 10 C 8.17 g/m*3 6.89 C 25.7 km/h
462 20-02-2022 14:25:00 10.1 C 8.13 g/m*3 8.1 C 14.5 km/h
463 20-02-2022 14:30:00 10.1 C 8.13 g/m*3 7.42 C 20.9 km/h
464 20-02-2022 14:35:00 10.2 C 8.18 g/m*3 7.4 C 22.5 km/h
465 20-02-2022 14:40:00 10.2 C 8.09 g/m*3 7.27 C 24.1 km/h
466 20-02-2022 14:45:00 10.3 C 8.14 g/m*3 7.82 C 19.3 km/h
467 20-02-2022 14:50:00 10.4 C 8.1 g/m*3 8.11 C 17.7 km/h
468 20-02-2022 14:55:00 10.4 C 8.1 g/m*3 8.47 C 14.5 km/h
469 20-02-2022 15:00:00 10.5 C 8.15 g/m*3 7.79 C 22.5 km/h
470 20-02-2022 15:05:00 10.5 C 8.15 g/m*3 8.23 C 17.7 km/h
471 20-02-2022 15:10:00 10.6 C 8.1 g/m*3 8.05 C 20.9 km/h
472 20-02-2022 15:15:00 10.6 C 8.1 g/m*3 8.05 C 20.9 km/h
473 20-02-2022 15:20:00 10.7 C 8.15 g/m*3 8.32 C 19.3 km/h
474 20-02-2022 15:25:00 10.7 C 8.05 g/m*3 7.79 C 25.7 km/h
475 20-02-2022 15:30:00 10.8 C 8.11 g/m*3 8.04 C 24.1 km/h
Sensor: Nr:Datum:Temp:Abs-Feuchte:Windchill:Wind:
Aussen-T/F 476 20-02-2022 15:35:00 10.8 C 8.11 g/m*3 8.3 C 20.9 km/h
477 20-02-2022 15:40:00 10.8 C 8.11 g/m*3 8.45 C 19.3 km/h
478 20-02-2022 15:45:00 10.8 C 8.11 g/m*3 8.3 C 20.9 km/h
479 20-02-2022 15:50:00 10.8 C 8.11 g/m*3 7.79 C 27.4 km/h
480 20-02-2022 15:55:00 10.9 C 8.16 g/m*3 7.61 C 32.2 km/h
481 20-02-2022 16:00:00 10.9 C 8.06 g/m*3 8.58 C 19.3 km/h
482 20-02-2022 16:05:00 10.9 C 8.06 g/m*3 7.33 C 37 km/h
483 20-02-2022 16:10:00 10.9 C 8.06 g/m*3 7.33 C 37 km/h
484 20-02-2022 16:15:00 10.9 C 8.06 g/m*3 7.92 C 27.4 km/h
485 20-02-2022 16:20:00 10.9 C 8.06 g/m*3 8.3 C 22.5 km/h
486 20-02-2022 16:25:00 10.9 C 8.06 g/m*3 7.51 C 33.8 km/h
487 20-02-2022 16:30:00 10.9 C 8.06 g/m*3 7.92 C 27.4 km/h
488 20-02-2022 16:35:00 10.9 C 8.06 g/m*3 7.81 C 29 km/h
489 20-02-2022 16:40:00 10.9 C 8.06 g/m*3 8.05 C 25.7 km/h
490 20-02-2022 16:45:00 10.8 C 8.11 g/m*3 7.58 C 30.6 km/h
491 20-02-2022 16:50:00 10.8 C 8.11 g/m*3 7.68 C 29 km/h
492 20-02-2022 16:55:00 10.7 C 8.15 g/m*3 7.79 C 25.7 km/h
493 20-02-2022 17:00:00 10.6 C 8.1 g/m*3 7.03 C 35.4 km/h
494 20-02-2022 17:05:00 10.6 C 8.1 g/m*3 7.66 C 25.7 km/h
495 20-02-2022 17:10:00 10.6 C 8.2 g/m*3 7.91 C 22.5 km/h
496 20-02-2022 17:15:00 10.5 C 8.15 g/m*3 7.79 C 22.5 km/h
497 20-02-2022 17:20:00 10.4 C 8.1 g/m*3 7.4 C 25.7 km/h
498 20-02-2022 17:25:00 10.4 C 8.1 g/m*3 7.66 C 22.5 km/h
499 20-02-2022 17:30:00 10.4 C 8.1 g/m*3 7.16 C 29 km/h
500 20-02-2022 17:35:00 10.4 C 8.1 g/m*3 7.53 C 24.1 km/h
Sensor: Nr:Datum:Temp:Abs-Feuchte:Windchill:Wind:
Aussen-T/F 501 20-02-2022 17:40:00 10.5 C 8.15 g/m*3 7.41 C 27.4 km/h
502 20-02-2022 17:45:00 10.5 C 8.15 g/m*3 7.65 C 24.1 km/h
503 20-02-2022 17:50:00 10.5 C 8.15 g/m*3 7.79 C 22.5 km/h
504 20-02-2022 17:55:00 10.5 C 8.15 g/m*3 7.29 C 29 km/h
505 20-02-2022 18:00:00 10.5 C 8.15 g/m*3 7.41 C 27.4 km/h
506 20-02-2022 18:05:00 10.5 C 8.15 g/m*3 8.23 C 17.7 km/h
507 20-02-2022 18:10:00 10.5 C 8.15 g/m*3 7.09 C 32.2 km/h
508 20-02-2022 18:15:00 10.5 C 8.15 g/m*3 7.41 C 27.4 km/h
509 20-02-2022 18:20:00 10.5 C 8.15 g/m*3 7.53 C 25.7 km/h
510 20-02-2022 18:25:00 10.4 C 8.19 g/m*3 7.53 C 24.1 km/h
511 20-02-2022 18:30:00 10.4 C 8.19 g/m*3 7.4 C 25.7 km/h
512 20-02-2022 18:35:00 10.4 C 8.19 g/m*3 7.4 C 25.7 km/h
513 20-02-2022 18:40:00 10.4 C 8.29 g/m*3 7.95 C 19.3 km/h
514 20-02-2022 18:45:00 10.3 C 8.24 g/m*3 7.27 C 25.7 km/h
515 20-02-2022 18:50:00 10.3 C 8.24 g/m*3 7.15 C 27.4 km/h
516 20-02-2022 18:55:00 10.2 C 8.28 g/m*3 7.14 C 25.7 km/h
517 20-02-2022 19:00:00 10.2 C 8.28 g/m*3 6.69 C 32.2 km/h
518 20-02-2022 19:05:00 10.3 C 8.33 g/m*3 6.93 C 30.6 km/h
519 20-02-2022 19:10:00 10.3 C 8.24 g/m*3 7.03 C 29 km/h
520 20-02-2022 19:15:00 10.3 C 8.24 g/m*3 7.27 C 25.7 km/h
521 20-02-2022 19:20:00 10.3 C 8.24 g/m*3 7.27 C 25.7 km/h
522 20-02-2022 19:25:00 10.3 C 8.24 g/m*3 7.27 C 25.7 km/h
523 20-02-2022 19:30:00 10.4 C 8.19 g/m*3 6.95 C 32.2 km/h
524 20-02-2022 19:35:00 10.6 C 8.3 g/m*3 7.22 C 32.2 km/h
525 20-02-2022 19:40:00 10.6 C 8.3 g/m*3 7.66 C 25.7 km/h
Sensor: Nr:Datum:Temp:Abs-Feuchte:Windchill:Wind:
Aussen-T/F 526 20-02-2022 19:45:00 10.7 C 8.25 g/m*3 7.16 C 35.4 km/h
527 20-02-2022 19:50:00 10.8 C 8.3 g/m*3 7.38 C 33.8 km/h
528 20-02-2022 19:55:00 10.8 C 8.2 g/m*3 7.48 C 32.2 km/h
529 20-02-2022 20:00:00 10.8 C 8.3 g/m*3 7.38 C 33.8 km/h
530 20-02-2022 20:05:00 10.8 C 8.3 g/m*3 7.29 C 35.4 km/h
531 20-02-2022 20:10:00 10.9 C 8.36 g/m*3 7.81 C 29 km/h
532 20-02-2022 20:15:00 10.8 C 8.2 g/m*3 7.38 C 33.8 km/h
533 20-02-2022 20:20:00 10.8 C 8.2 g/m*3 7.68 C 29 km/h
534 20-02-2022 20:25:00 10.9 C 8.36 g/m*3 8.05 C 25.7 km/h
535 20-02-2022 20:30:00 10.9 C 8.26 g/m*3 7.17 C 40.2 km/h
536 20-02-2022 20:35:00 10.9 C 8.26 g/m*3 8.05 C 25.7 km/h
537 20-02-2022 20:40:00 10.9 C 8.26 g/m*3 7.61 C 32.2 km/h
538 20-02-2022 20:45:00 10.9 C 8.26 g/m*3 7.81 C 29 km/h
539 20-02-2022 20:50:00 10.9 C 8.26 g/m*3 7.81 C 29 km/h
540 20-02-2022 20:55:00 10.9 C 8.26 g/m*3 7.61 C 32.2 km/h
541 20-02-2022 21:00:00 10.9 C 8.26 g/m*3 7.92 C 27.4 km/h
542 20-02-2022 21:05:00 10.9 C 8.36 g/m*3 7.81 C 29 km/h
543 20-02-2022 21:10:00 10.9 C 8.36 g/m*3 7.92 C 27.4 km/h
544 20-02-2022 21:15:00 10.8 C 8.4 g/m*3 8.17 C 22.5 km/h
545 20-02-2022 21:20:00 10.6 C 8.39 g/m*3 7.66 C 25.7 km/h
546 20-02-2022 21:25:00 10.5 C 8.44 g/m*3 7.29 C 29 km/h
547 20-02-2022 21:30:00 10.4 C 8.38 g/m*3 7.4 C 25.7 km/h
548 20-02-2022 21:35:00 10.4 C 8.38 g/m*3 7.53 C 24.1 km/h
549 20-02-2022 21:40:00 10.5 C 8.34 g/m*3 7.29 C 29 km/h
550 20-02-2022 21:45:00 10.6 C 8.3 g/m*3 8.05 C 20.9 km/h
Sensor: Nr:Datum:Temp:Abs-Feuchte:Windchill:Wind:
Aussen-T/F 551 20-02-2022 21:50:00 10.7 C 8.35 g/m*3 7.79 C 25.7 km/h
552 20-02-2022 21:55:00 10.8 C 8.3 g/m*3 7.38 C 33.8 km/h
553 20-02-2022 22:00:00 10.9 C 8.26 g/m*3 7.71 C 30.6 km/h
554 20-02-2022 22:05:00 11 C 8.31 g/m*3 7.74 C 32.2 km/h
555 20-02-2022 22:10:00 11.1 C 8.36 g/m*3 11.1 C 24.1 km/h
556 20-02-2022 22:15:00 11.1 C 8.36 g/m*3 11.1 C 32.2 km/h
557 20-02-2022 22:20:00 11.1 C 8.26 g/m*3 11.1 C 27.4 km/h
558 20-02-2022 22:25:00 11.1 C 8.26 g/m*3 11.1 C 32.2 km/h
559 20-02-2022 22:30:00 11.1 C 8.26 g/m*3 11.1 C 32.2 km/h
560 20-02-2022 22:35:00 11.2 C 8.31 g/m*3 11.2 C 29 km/h
561 20-02-2022 22:40:00 11.2 C 8.21 g/m*3 11.2 C 43.4 km/h
562 20-02-2022 22:45:00 11.2 C 8.21 g/m*3 11.2 C 43.4 km/h
563 20-02-2022 22:50:00 11.3 C 8.26 g/m*3 11.3 C 29 km/h
564 20-02-2022 22:55:00 11.3 C 8.26 g/m*3 11.3 C 30.6 km/h
565 20-02-2022 23:00:00 11.2 C 8.31 g/m*3 11.2 C 30.6 km/h
566 20-02-2022 23:05:00 11.1 C 8.26 g/m*3 11.1 C 24.1 km/h
567 20-02-2022 23:10:00 11 C 8.21 g/m*3 7.94 C 29 km/h
568 20-02-2022 23:15:00 11 C 8.21 g/m*3 7.65 C 33.8 km/h
569 20-02-2022 23:20:00 11 C 8.21 g/m*3 7.84 C 30.6 km/h
570 20-02-2022 23:25:00 11 C 8.21 g/m*3 8.17 C 25.7 km/h
571 20-02-2022 23:30:00 10.9 C 8.26 g/m*3 7.92 C 27.4 km/h
572 20-02-2022 23:35:00 10.9 C 8.26 g/m*3 7.01 C 43.4 km/h
573 20-02-2022 23:40:00 10.8 C 8.2 g/m*3 7.38 C 33.8 km/h
574 20-02-2022 23:45:00 10.8 C 8.2 g/m*3 7.68 C 29 km/h
575 20-02-2022 23:50:00 10.8 C 8.3 g/m*3 7.2 C 37 km/h
Sensor: Nr:Datum:Temp:Abs-Feuchte:Windchill:Wind:
Aussen-T/F 576 20-02-2022 23:55:00 10.7 C 8.25 g/m*3 7.55 C 29 km/h
577 21-02-2022 00:00:00 10.7 C 8.25 g/m*3 7.16 C 35.4 km/h
578 21-02-2022 00:05:00 10.8 C 8.2 g/m*3 7.29 C 35.4 km/h
579 21-02-2022 00:10:00 10.8 C 8.2 g/m*3 7.58 C 30.6 km/h
580 21-02-2022 00:15:00 10.8 C 8.3 g/m*3 7.68 C 29 km/h
581 21-02-2022 00:20:00 10.7 C 8.35 g/m*3 7.79 C 25.7 km/h
582 21-02-2022 00:25:00 10.6 C 8.3 g/m*3 6.94 C 37 km/h
583 21-02-2022 00:30:00 10.6 C 8.3 g/m*3 7.12 C 33.8 km/h
584 21-02-2022 00:35:00 10.6 C 8.3 g/m*3 7.12 C 33.8 km/h
585 21-02-2022 00:40:00 10.7 C 8.35 g/m*3 7.45 C 30.6 km/h
586 21-02-2022 00:45:00 10.7 C 8.35 g/m*3 6.9 C 40.2 km/h
587 21-02-2022 00:50:00 10.6 C 8.39 g/m*3 7.12 C 33.8 km/h
588 21-02-2022 00:55:00 10.4 C 8.38 g/m*3 7.28 C 27.4 km/h
589 21-02-2022 01:00:00 10.4 C 8.48 g/m*3 7.06 C 30.6 km/h
590 21-02-2022 01:05:00 10.3 C 8.52 g/m*3 7.15 C 27.4 km/h
591 21-02-2022 01:10:00 10.2 C 8.47 g/m*3 6.8 C 30.6 km/h
592 21-02-2022 01:15:00 10.1 C 8.51 g/m*3 7.42 C 20.9 km/h
593 21-02-2022 01:20:00 10 C 8.46 g/m*3 7.29 C 20.9 km/h
594 21-02-2022 01:25:00 9.9 C 8.5 g/m*3 8.06 C 12.9 km/h
595 21-02-2022 01:30:00 9.8 C 8.44 g/m*3 6.76 C 24.1 km/h
596 21-02-2022 01:35:00 9.8 C 8.54 g/m*3 6.38 C 29 km/h
597 21-02-2022 01:40:00 8.9 C 7.88 g/m*3 4.88 C 33.8 km/h
598 21-02-2022 01:45:00 8.1 C 7.32 g/m*3 4.3 C 27.4 km/h
599 21-02-2022 01:50:00 7.6 C 7.17 g/m*3 3.52 C 29 km/h
600 21-02-2022 01:55:00 7.4 C 7.16 g/m*3 4.17 C 19.3 km/h
Sensor: Nr:Datum:Temp:Abs-Feuchte:Windchill:Wind:
Aussen-T/F 601 21-02-2022 02:00:00 7.4 C 7.08 g/m*3 4 C 20.9 km/h
602 21-02-2022 02:05:00 7.5 C 7.04 g/m*3 3.03 C 33.8 km/h
603 21-02-2022 02:10:00 7.3 C 6.72 g/m*3 3.55 C 24.1 km/h
604 21-02-2022 02:15:00 6.9 C 6.47 g/m*3 3.2 C 22.5 km/h
605 21-02-2022 02:20:00 6.7 C 6.23 g/m*3 3.11 C 20.9 km/h
606 21-02-2022 02:25:00 6.7 C 6.23 g/m*3 3.11 C 20.9 km/h
607 21-02-2022 02:30:00 6.6 C 6.19 g/m*3 3.36 C 17.7 km/h
608 21-02-2022 02:35:00 6.6 C 6.27 g/m*3 3.36 C 17.7 km/h
609 21-02-2022 02:40:00 6.6 C 6.19 g/m*3 2.66 C 24.1 km/h
610 21-02-2022 02:45:00 6.7 C 6.23 g/m*3 3.69 C 16.1 km/h
611 21-02-2022 02:50:00 6.7 C 6.23 g/m*3 4.44 C 11.3 km/h
612 21-02-2022 02:55:00 6.7 C 6.23 g/m*3 3.69 C 16.1 km/h
613 21-02-2022 03:00:00 6.7 C 6.23 g/m*3 3.69 C 16.1 km/h
614 21-02-2022 03:05:00 6.8 C 6.27 g/m*3 4.04 C 14.5 km/h
615 21-02-2022 03:10:00 6.8 C 6.27 g/m*3 3.61 C 17.7 km/h
616 21-02-2022 03:15:00 6.8 C 6.35 g/m*3 4.56 C 11.3 km/h
617 21-02-2022 03:20:00 6.7 C 6.31 g/m*3 3.92 C 14.5 km/h
618 21-02-2022 03:25:00 6.7 C 6.23 g/m*3 3.11 C 20.9 km/h
619 21-02-2022 03:30:00 6.7 C 6.08 g/m*3 2.79 C 24.1 km/h
620 21-02-2022 03:35:00 6.6 C 6.04 g/m*3 2.36 C 27.4 km/h
621 21-02-2022 03:40:00 6.6 C 6.04 g/m*3 3.57 C 16.1 km/h
622 21-02-2022 03:45:00 6.6 C 5.89 g/m*3 2.99 C 20.9 km/h
623 21-02-2022 03:50:00 6.6 C 5.96 g/m*3 2.36 C 27.4 km/h
624 21-02-2022 03:55:00 6.3 C 5.85 g/m*3 1.97 C 27.4 km/h
625 21-02-2022 04:00:00 6.2 C 5.88 g/m*3 0.78 C 41.8 km/h
Sensor: Nr:Datum:Temp:Abs-Feuchte:Windchill:Wind:
Aussen-T/F 626 21-02-2022 04:05:00 5.9 C 5.77 g/m*3 0.38 C 41.8 km/h
627 21-02-2022 04:10:00 5.6 C 5.44 g/m*3 -0.03 C 41.8 km/h
628 21-02-2022 04:15:00 5.6 C 5.44 g/m*3 0.08 C 40.2 km/h
629 21-02-2022 04:20:00 5.6 C 5.66 g/m*3 0.18 C 38.6 km/h
630 21-02-2022 04:25:00 5.4 C 5.79 g/m*3 0.03 C 37 km/h
631 21-02-2022 04:30:00 5.2 C 5.85 g/m*3 0.54 C 27.4 km/h
632 21-02-2022 04:35:00 5 C 5.84 g/m*3 0.78 C 22.5 km/h
633 21-02-2022 04:40:00 4.9 C 5.81 g/m*3 1.24 C 17.7 km/h
634 21-02-2022 04:45:00 4.8 C 5.77 g/m*3 1.58 C 14.5 km/h
635 21-02-2022 04:50:00 4.7 C 5.73 g/m*3 2.37 C 9.7 km/h
636 21-02-2022 04:55:00 4.7 C 5.8 g/m*3 2.03 C 11.3 km/h
637 21-02-2022 05:00:00 4.7 C 5.8 g/m*3 0.4 C 22.5 km/h
638 21-02-2022 05:05:00 4.9 C 5.67 g/m*3 -0.13 C 30.6 km/h
639 21-02-2022 05:10:00 5 C 5.64 g/m*3 -0.26 C 33.8 km/h
640 21-02-2022 05:15:00 4.9 C 5.54 g/m*3 0.48 C 24.1 km/h
641 21-02-2022 05:20:00 4.9 C 5.54 g/m*3 0.83 C 20.9 km/h
642 21-02-2022 05:25:00 4.8 C 5.63 g/m*3 0.35 C 24.1 km/h
643 21-02-2022 05:30:00 4.6 C 5.69 g/m*3 -0.52 C 30.6 km/h
644 21-02-2022 05:35:00 4.4 C 5.62 g/m*3 0.01 C 22.5 km/h
645 21-02-2022 05:40:00 4.4 C 5.62 g/m*3 0.4 C 19.3 km/h
646 21-02-2022 05:45:00 4.3 C 5.64 g/m*3 0.27 C 19.3 km/h
647 21-02-2022 05:50:00 4.3 C 5.64 g/m*3 1.55 C 11.3 km/h
648 21-02-2022 05:55:00 4.1 C 5.57 g/m*3 -1.18 C 30.6 km/h
649 21-02-2022 06:00:00 4.1 C 5.57 g/m*3 -1.57 C 35.4 km/h
650 21-02-2022 06:05:00 4.1 C 5.57 g/m*3 -1.57 C 35.4 km/h
Sensor: Nr:Datum:Temp:Abs-Feuchte:Windchill:Wind:
Aussen-T/F 651 21-02-2022 06:10:00 4.1 C 5.5 g/m*3 -1.03 C 29 km/h
652 21-02-2022 06:15:00 4.2 C 5.48 g/m*3 -0.9 C 29 km/h
653 21-02-2022 06:20:00 4.3 C 5.51 g/m*3 -0.11 C 22.5 km/h
654 21-02-2022 06:25:00 4.3 C 5.51 g/m*3 0.72 C 16.1 km/h
655 21-02-2022 06:30:00 4.2 C 5.48 g/m*3 1.12 C 12.9 km/h
656 21-02-2022 06:35:00 4.1 C 5.44 g/m*3 -0.18 C 20.9 km/h
657 21-02-2022 06:40:00 4.1 C 5.38 g/m*3 -0.55 C 24.1 km/h
658 21-02-2022 06:45:00 4.2 C 5.28 g/m*3 -0.42 C 24.1 km/h
659 21-02-2022 06:50:00 4.3 C 5.25 g/m*3 0.07 C 20.9 km/h
660 21-02-2022 06:55:00 4.3 C 5.25 g/m*3 0.97 C 14.5 km/h
661 21-02-2022 07:00:00 4.3 C 5.25 g/m*3 -0.46 C 25.7 km/h
662 21-02-2022 07:05:00 4.3 C 5.32 g/m*3 -0.46 C 25.7 km/h
663 21-02-2022 07:10:00 4.3 C 5.38 g/m*3 0.07 C 20.9 km/h
664 21-02-2022 07:15:00 4.3 C 5.38 g/m*3 0.97 C 14.5 km/h
665 21-02-2022 07:20:00 4.3 C 5.38 g/m*3 0.97 C 14.5 km/h
666 21-02-2022 07:25:00 4.2 C 5.35 g/m*3 1.77 C 9.7 km/h
667 21-02-2022 07:30:00 4.1 C 5.38 g/m*3 4.1 C 4.8 km/h
668 21-02-2022 07:35:00 3.9 C 5.37 g/m*3 3.9 C 3.2 km/h
669 21-02-2022 07:40:00 3.8 C 5.4 g/m*3 0.94 C 11.3 km/h
670 21-02-2022 07:45:00 3.8 C 5.4 g/m*3 -0.56 C 20.9 km/h
671 21-02-2022 07:50:00 3.9 C 5.43 g/m*3 -1.44 C 30.6 km/h
672 21-02-2022 07:55:00 3.9 C 5.43 g/m*3 -1.58 C 32.2 km/h
673 21-02-2022 08:00:00 3.9 C 5.43 g/m*3 -0.01 C 17.7 km/h
674 21-02-2022 08:05:00 3.9 C 5.43 g/m*3 -0.01 C 17.7 km/h
675 21-02-2022 08:10:00 3.9 C 5.43 g/m*3 -0.23 C 19.3 km/h
Sensor: Nr:Datum:Temp:Abs-Feuchte:Windchill:Wind:
Aussen-T/F 676 21-02-2022 08:15:00 3.9 C 5.43 g/m*3 0.47 C 14.5 km/h
677 21-02-2022 08:20:00 3.8 C 5.4 g/m*3 0.1 C 16.1 km/h
678 21-02-2022 08:25:00 3.8 C 5.33 g/m*3 1.29 C 9.7 km/h
679 21-02-2022 08:30:00 3.9 C 5.37 g/m*3 1.82 C 8.1 km/h
680 21-02-2022 08:35:00 3.8 C 5.27 g/m*3 0.94 C 11.3 km/h
681 21-02-2022 08:40:00 3.9 C 5.24 g/m*3 0.22 C 16.1 km/h
682 21-02-2022 08:45:00 4.1 C 5.25 g/m*3 2.05 C 8.1 km/h
683 21-02-2022 08:50:00 4.1 C 5.31 g/m*3 1.31 C 11.3 km/h
684 21-02-2022 08:55:00 4.2 C 5.28 g/m*3 0.84 C 14.5 km/h
685 21-02-2022 09:00:00 4.4 C 5.35 g/m*3 2.4 C 8.1 km/h
686 21-02-2022 09:05:00 4.4 C 5.42 g/m*3 2.01 C 9.7 km/h
687 21-02-2022 09:10:00 4.5 C 5.46 g/m*3 0.74 C 17.7 km/h
688 21-02-2022 09:15:00 4.7 C 5.4 g/m*3 0.58 C 20.9 km/h
689 21-02-2022 09:20:00 4.8 C 5.43 g/m*3 0.71 C 20.9 km/h
690 21-02-2022 09:25:00 5.1 C 5.54 g/m*3 1.28 C 19.3 km/h
691 21-02-2022 09:30:00 5.2 C 5.58 g/m*3 0.7 C 25.7 km/h
692 21-02-2022 09:35:00 5.2 C 5.51 g/m*3 0.54 C 27.4 km/h
693 21-02-2022 09:40:00 5.1 C 5.4 g/m*3 0 C 32.2 km/h
694 21-02-2022 09:45:00 5.1 C 5.47 g/m*3 1.28 C 19.3 km/h
695 21-02-2022 09:50:00 5.1 C 5.47 g/m*3 0.41 C 27.4 km/h
696 21-02-2022 09:55:00 5.1 C 5.4 g/m*3 0.74 C 24.1 km/h
697 21-02-2022 10:00:00 5.2 C 5.51 g/m*3 0.4 C 29 km/h
698 21-02-2022 10:05:00 5.3 C 5.54 g/m*3 1.16 C 22.5 km/h
699 21-02-2022 10:10:00 5.3 C 5.48 g/m*3 1.34 C 20.9 km/h
700 21-02-2022 10:15:00 5.3 C 5.48 g/m*3 1.34 C 20.9 km/h
Sensor: Nr:Datum:Temp:Abs-Feuchte:Windchill:Wind:
Aussen-T/F 701 21-02-2022 10:20:00 5.3 C 5.48 g/m*3 0.26 C 32.2 km/h
702 21-02-2022 10:25:00 5.4 C 5.44 g/m*3 0.66 C 29 km/h
703 21-02-2022 10:30:00 5.6 C 5.44 g/m*3 1.22 C 25.7 km/h
704 21-02-2022 10:35:00 5.7 C 5.34 g/m*3 1.19 C 27.4 km/h
705 21-02-2022 10:40:00 5.8 C 5.37 g/m*3 1.32 C 27.4 km/h
706 21-02-2022 10:45:00 5.9 C 5.41 g/m*3 1.18 C 30.6 km/h
707 21-02-2022 10:50:00 6.1 C 5.55 g/m*3 2.18 C 22.5 km/h
708 21-02-2022 10:55:00 6.2 C 5.52 g/m*3 1.99 C 25.7 km/h
709 21-02-2022 11:00:00 6.2 C 5.44 g/m*3 1.32 C 33.8 km/h
710 21-02-2022 11:05:00 6.3 C 5.4 g/m*3 2.12 C 25.7 km/h
711 21-02-2022 11:10:00 6.5 C 5.47 g/m*3 2.69 C 22.5 km/h
712 21-02-2022 11:15:00 6.6 C 5.51 g/m*3 2.36 C 27.4 km/h
713 21-02-2022 11:20:00 6.6 C 5.44 g/m*3 3.17 C 19.3 km/h
714 21-02-2022 11:25:00 6.7 C 5.47 g/m*3 2.79 C 24.1 km/h
715 21-02-2022 11:30:00 6.8 C 5.51 g/m*3 2.76 C 25.7 km/h
716 21-02-2022 11:35:00 6.8 C 5.58 g/m*3 2.23 C 32.2 km/h
717 21-02-2022 11:40:00 6.8 C 5.58 g/m*3 2.76 C 25.7 km/h
718 21-02-2022 11:45:00 6.9 C 5.62 g/m*3 3.2 C 22.5 km/h
719 21-02-2022 11:50:00 7 C 5.58 g/m*3 3.17 C 24.1 km/h
720 21-02-2022 11:55:00 7 C 5.58 g/m*3 3.02 C 25.7 km/h
721 21-02-2022 12:00:00 7 C 5.66 g/m*3 3.67 C 19.3 km/h
722 21-02-2022 12:05:00 7.1 C 5.69 g/m*3 3.98 C 17.7 km/h
723 21-02-2022 12:10:00 7.2 C 5.65 g/m*3 3.92 C 19.3 km/h
724 21-02-2022 12:15:00 7.2 C 5.65 g/m*3 3.58 C 22.5 km/h
725 21-02-2022 12:20:00 7.3 C 5.69 g/m*3 3.55 C 24.1 km/h
Sensor: Nr:Datum:Temp:Abs-Feuchte:Windchill:Wind:
Aussen-T/F 726 21-02-2022 12:25:00 7.4 C 5.65 g/m*3 3.26 C 29 km/h
727 21-02-2022 12:30:00 7.4 C 5.73 g/m*3 4 C 20.9 km/h
728 21-02-2022 12:35:00 7.5 C 5.84 g/m*3 3.81 C 24.1 km/h
729 21-02-2022 12:40:00 7.5 C 5.76 g/m*3 3.81 C 24.1 km/h
730 21-02-2022 12:45:00 7.6 C 5.88 g/m*3 4.25 C 20.9 km/h
731 21-02-2022 12:50:00 7.7 C 5.84 g/m*3 3.53 C 30.6 km/h
732 21-02-2022 12:55:00 7.7 C 5.92 g/m*3 3.78 C 27.4 km/h
733 21-02-2022 13:00:00 7.6 C 5.96 g/m*3 4.25 C 20.9 km/h
734 21-02-2022 13:05:00 7.6 C 6.04 g/m*3 4.42 C 19.3 km/h
735 21-02-2022 13:10:00 7.4 C 6.04 g/m*3 2.9 C 33.8 km/h
736 21-02-2022 13:15:00 7.3 C 6 g/m*3 3.87 C 20.9 km/h
737 21-02-2022 13:20:00 7.3 C 6.08 g/m*3 3.26 C 27.4 km/h
738 21-02-2022 13:25:00 7.2 C 6.12 g/m*3 3 C 29 km/h
739 21-02-2022 13:30:00 7.2 C 6.12 g/m*3 3.28 C 25.7 km/h
740 21-02-2022 13:35:00 7.2 C 6.12 g/m*3 3.28 C 25.7 km/h
741 21-02-2022 13:40:00 7.1 C 6.16 g/m*3 3.3 C 24.1 km/h
742 21-02-2022 13:45:00 7.2 C 6.28 g/m*3 2.87 C 30.6 km/h
743 21-02-2022 13:50:00 7.1 C 6.32 g/m*3 2.29 C 37 km/h
744 21-02-2022 13:55:00 7.1 C 6.4 g/m*3 2.87 C 29 km/h
745 21-02-2022 14:00:00 7 C 6.28 g/m*3 2.74 C 29 km/h
746 21-02-2022 14:05:00 6.9 C 6.24 g/m*3 3.04 C 24.1 km/h
747 21-02-2022 14:10:00 6.8 C 6.35 g/m*3 1.78 C 38.6 km/h
748 21-02-2022 14:15:00 6.7 C 6.38 g/m*3 2.1 C 32.2 km/h
749 21-02-2022 14:20:00 6.6 C 6.42 g/m*3 1.73 C 35.4 km/h
750 21-02-2022 14:25:00 6.3 C 6.44 g/m*3 1.83 C 29 km/h
Sensor: Nr:Datum:Temp:Abs-Feuchte:Windchill:Wind:
Aussen-T/F 751 21-02-2022 14:30:00 6.1 C 6.43 g/m*3 1.71 C 27.4 km/h
752 21-02-2022 14:35:00 5.9 C 6.42 g/m*3 1.93 C 22.5 km/h
753 21-02-2022 14:40:00 5.8 C 6.38 g/m*3 1.32 C 27.4 km/h
754 21-02-2022 14:45:00 5.8 C 6.38 g/m*3 0.68 C 35.4 km/h
755 21-02-2022 14:50:00 5.8 C 6.38 g/m*3 0.79 C 33.8 km/h
756 21-02-2022 14:55:00 5.8 C 6.38 g/m*3 1.32 C 27.4 km/h
757 21-02-2022 15:00:00 5.9 C 6.42 g/m*3 1.61 C 25.7 km/h
758 21-02-2022 15:05:00 5.9 C 6.42 g/m*3 1.76 C 24.1 km/h
759 21-02-2022 15:10:00 6.1 C 6.5 g/m*3 2.54 C 19.3 km/h
760 21-02-2022 15:15:00 6.1 C 6.43 g/m*3 2.18 C 22.5 km/h
761 21-02-2022 15:20:00 6.1 C 6.43 g/m*3 1.71 C 27.4 km/h
762 21-02-2022 15:25:00 6.2 C 6.47 g/m*3 2.31 C 22.5 km/h
763 21-02-2022 15:30:00 6.3 C 6.51 g/m*3 2.43 C 22.5 km/h
764 21-02-2022 15:35:00 6.3 C 6.51 g/m*3 2.98 C 17.7 km/h
765 21-02-2022 15:40:00 6.4 C 6.48 g/m*3 2.25 C 25.7 km/h
766 21-02-2022 15:45:00 6.4 C 6.48 g/m*3 2.1 C 27.4 km/h
767 21-02-2022 15:50:00 6.3 C 6.44 g/m*3 1.97 C 27.4 km/h
768 21-02-2022 15:55:00 6.2 C 6.47 g/m*3 1.57 C 30.6 km/h
769 21-02-2022 16:00:00 6.1 C 6.5 g/m*3 1.86 C 25.7 km/h
770 21-02-2022 16:05:00 6.1 C 6.58 g/m*3 2.54 C 19.3 km/h
771 21-02-2022 16:10:00 6.2 C 6.62 g/m*3 1.99 C 25.7 km/h
772 21-02-2022 16:15:00 6.3 C 6.66 g/m*3 2.12 C 25.7 km/h
773 21-02-2022 16:20:00 6.3 C 6.59 g/m*3 2.27 C 24.1 km/h
774 21-02-2022 16:25:00 6.3 C 6.59 g/m*3 2.27 C 24.1 km/h
775 21-02-2022 16:30:00 6.4 C 6.63 g/m*3 1.96 C 29 km/h
Sensor: Nr:Datum:Temp:Abs-Feuchte:Windchill:Wind:
Aussen-T/F 776 21-02-2022 16:35:00 6.4 C 6.63 g/m*3 2.91 C 19.3 km/h
777 21-02-2022 16:40:00 6.3 C 6.66 g/m*3 3.2 C 16.1 km/h
778 21-02-2022 16:45:00 6.3 C 6.66 g/m*3 1.83 C 29 km/h
779 21-02-2022 16:50:00 6.2 C 6.62 g/m*3 2.66 C 19.3 km/h
780 21-02-2022 16:55:00 6.2 C 6.62 g/m*3 3.07 C 16.1 km/h
781 21-02-2022 17:00:00 6.2 C 6.62 g/m*3 3.07 C 16.1 km/h
782 21-02-2022 17:05:00 6.3 C 6.74 g/m*3 2.79 C 19.3 km/h
783 21-02-2022 17:10:00 6.3 C 6.74 g/m*3 2.61 C 20.9 km/h
784 21-02-2022 17:15:00 6.3 C 6.66 g/m*3 2.98 C 17.7 km/h
785 21-02-2022 17:20:00 6.4 C 6.71 g/m*3 3.11 C 17.7 km/h
786 21-02-2022 17:25:00 6.4 C 6.63 g/m*3 2.4 C 24.1 km/h
787 21-02-2022 17:30:00 6.5 C 6.67 g/m*3 3.04 C 19.3 km/h
788 21-02-2022 17:35:00 6.6 C 6.72 g/m*3 3.79 C 14.5 km/h
789 21-02-2022 17:40:00 6.7 C 6.61 g/m*3 3.11 C 20.9 km/h
790 21-02-2022 17:45:00 6.9 C 6.62 g/m*3 3.54 C 19.3 km/h
791 21-02-2022 17:50:00 7.1 C 6.63 g/m*3 4.41 C 14.5 km/h
792 21-02-2022 17:55:00 7.2 C 6.52 g/m*3 3.92 C 19.3 km/h
793 21-02-2022 18:00:00 7.4 C 6.6 g/m*3 4.17 C 19.3 km/h
794 21-02-2022 18:05:00 7.5 C 6.56 g/m*3 4.68 C 16.1 km/h
795 21-02-2022 18:10:00 7.4 C 6.36 g/m*3 3.39 C 27.4 km/h
796 21-02-2022 18:15:00 7.6 C 6.36 g/m*3 3.8 C 25.7 km/h
797 21-02-2022 18:20:00 7.6 C 6.28 g/m*3 3.94 C 24.1 km/h
798 21-02-2022 18:25:00 7.6 C 6.28 g/m*3 4.61 C 17.7 km/h
799 21-02-2022 18:30:00 7.7 C 6.24 g/m*3 3.65 C 29 km/h
800 21-02-2022 18:35:00 7.7 C 6.16 g/m*3 3.78 C 27.4 km/h
Sensor: Nr:Datum:Temp:Abs-Feuchte:Windchill:Wind:
Aussen-T/F 801 21-02-2022 18:40:00 7.7 C 6.08 g/m*3 3.53 C 30.6 km/h
802 21-02-2022 18:45:00 7.7 C 6 g/m*3 3.92 C 25.7 km/h
803 21-02-2022 18:50:00 7.7 C 6.08 g/m*3 3.92 C 25.7 km/h
804 21-02-2022 18:55:00 7.8 C 6.04 g/m*3 3.32 C 35.4 km/h
805 21-02-2022 19:00:00 7.7 C 6 g/m*3 3.65 C 29 km/h
806 21-02-2022 19:05:00 7.6 C 5.8 g/m*3 4.25 C 20.9 km/h
807 21-02-2022 19:10:00 7.6 C 5.88 g/m*3 5.02 C 14.5 km/h
808 21-02-2022 19:15:00 7.5 C 5.84 g/m*3 3.67 C 25.7 km/h
809 21-02-2022 19:20:00 7.5 C 6 g/m*3 3.67 C 25.7 km/h
810 21-02-2022 19:25:00 7.4 C 6.04 g/m*3 4.17 C 19.3 km/h
811 21-02-2022 19:30:00 7.3 C 6.08 g/m*3 4.23 C 17.7 km/h
812 21-02-2022 19:35:00 7.2 C 6.12 g/m*3 3.28 C 25.7 km/h
813 21-02-2022 19:40:00 7.2 C 6.04 g/m*3 4.11 C 17.7 km/h
814 21-02-2022 19:45:00 7.2 C 6.2 g/m*3 5.35 C 9.7 km/h
815 21-02-2022 19:50:00 7.2 C 6.2 g/m*3 4.31 C 16.1 km/h
816 21-02-2022 19:55:00 7.1 C 6.24 g/m*3 4.19 C 16.1 km/h
817 21-02-2022 20:00:00 6.9 C 6.16 g/m*3 3.37 C 20.9 km/h
818 21-02-2022 20:05:00 6.8 C 6.04 g/m*3 3.61 C 17.7 km/h
819 21-02-2022 20:10:00 6.7 C 6.08 g/m*3 3.48 C 17.7 km/h
820 21-02-2022 20:15:00 6.6 C 6.04 g/m*3 3.36 C 17.7 km/h
821 21-02-2022 20:20:00 6.6 C 6.04 g/m*3 2.66 C 24.1 km/h
822 21-02-2022 20:25:00 6.6 C 6.04 g/m*3 4.32 C 11.3 km/h
823 21-02-2022 20:30:00 6.6 C 6.04 g/m*3 3.57 C 16.1 km/h
824 21-02-2022 20:35:00 6.5 C 6 g/m*3 3.92 C 12.9 km/h
825 21-02-2022 20:40:00 6.4 C 5.96 g/m*3 6.4 C 4.8 km/h
Sensor: Nr:Datum:Temp:Abs-Feuchte:Windchill:Wind:
Aussen-T/F 826 21-02-2022 20:45:00 6.4 C 5.96 g/m*3 4.39 C 9.7 km/h
827 21-02-2022 20:50:00 6.4 C 5.96 g/m*3 3.32 C 16.1 km/h
828 21-02-2022 20:55:00 6.5 C 6 g/m*3 3.67 C 14.5 km/h
829 21-02-2022 21:00:00 6.5 C 6 g/m*3 4.2 C 11.3 km/h
830 21-02-2022 21:05:00 6.6 C 6.04 g/m*3 4.32 C 11.3 km/h
831 21-02-2022 21:10:00 6.6 C 6.04 g/m*3 4.04 C 12.9 km/h
832 21-02-2022 21:15:00 6.7 C 6.08 g/m*3 4.75 C 9.7 km/h
833 21-02-2022 21:20:00 6.8 C 6.12 g/m*3 4.87 C 9.7 km/h
834 21-02-2022 21:25:00 6.8 C 6.19 g/m*3 4.56 C 11.3 km/h
835 21-02-2022 21:30:00 6.8 C 6.19 g/m*3 4.87 C 9.7 km/h
836 21-02-2022 21:35:00 6.8 C 6.19 g/m*3 4.29 C 12.9 km/h
837 21-02-2022 21:40:00 6.8 C 6.19 g/m*3 3.82 C 16.1 km/h
838 21-02-2022 21:45:00 6.8 C 6.19 g/m*3 3.82 C 16.1 km/h
839 21-02-2022 21:50:00 6.8 C 6.35 g/m*3 4.56 C 11.3 km/h
840 21-02-2022 21:55:00 6.8 C 6.5 g/m*3 4.56 C 11.3 km/h
841 21-02-2022 22:00:00 6.6 C 6.42 g/m*3 4.32 C 11.3 km/h
842 21-02-2022 22:05:00 6.5 C 6.45 g/m*3 4.2 C 11.3 km/h
843 21-02-2022 22:10:00 6.4 C 6.48 g/m*3 3.8 C 12.9 km/h
844 21-02-2022 22:15:00 6.3 C 6.44 g/m*3 4.64 C 8.1 km/h
845 21-02-2022 22:20:00 6.3 C 6.44 g/m*3 3.96 C 11.3 km/h
846 21-02-2022 22:25:00 6.3 C 6.44 g/m*3 3.96 C 11.3 km/h
847 21-02-2022 22:30:00 6.3 C 6.44 g/m*3 3.43 C 14.5 km/h
848 21-02-2022 22:35:00 6.4 C 6.48 g/m*3 3.8 C 12.9 km/h
849 21-02-2022 22:40:00 6.4 C 6.41 g/m*3 3.11 C 17.7 km/h
850 21-02-2022 22:45:00 6.6 C 6.42 g/m*3 3.79 C 14.5 km/h
Sensor: Nr:Datum:Temp:Abs-Feuchte:Windchill:Wind:
Aussen-T/F 851 21-02-2022 22:50:00 6.7 C 6.38 g/m*3 3.92 C 14.5 km/h
852 21-02-2022 22:55:00 6.8 C 6.35 g/m*3 3.24 C 20.9 km/h
853 21-02-2022 23:00:00 6.9 C 6.24 g/m*3 3.54 C 19.3 km/h
854 21-02-2022 23:05:00 7.1 C 6.24 g/m*3 3.15 C 25.7 km/h
855 21-02-2022 23:10:00 7.1 C 6.16 g/m*3 3.8 C 19.3 km/h
856 21-02-2022 23:15:00 7.2 C 6.12 g/m*3 4.77 C 12.9 km/h
857 21-02-2022 23:20:00 7.2 C 6.12 g/m*3 4.53 C 14.5 km/h
858 21-02-2022 23:25:00 7.2 C 6.12 g/m*3 5.04 C 11.3 km/h
859 21-02-2022 23:30:00 7.2 C 6.12 g/m*3 4.77 C 12.9 km/h
860 21-02-2022 23:35:00 7.2 C 6.12 g/m*3 5.69 C 8.1 km/h
861 21-02-2022 23:40:00 7.2 C 6.12 g/m*3 4.31 C 16.1 km/h
862 21-02-2022 23:45:00 7.1 C 6.08 g/m*3 4.92 C 11.3 km/h
863 21-02-2022 23:50:00 7.1 C 6.01 g/m*3 3.45 C 22.5 km/h
864 21-02-2022 23:55:00 7.1 C 5.93 g/m*3 4.65 C 12.9 km/h

Legende:
   Min
   Max


Maximal/Minimal-Werte vom 19.02.2022 - 21.02.2022

Sensor Min Max Avg
Temp
(Aussen-T/F)
3.8 °C
21-02-2022  07:40:00
11.3 °C
20-02-2022  22:50:00
7.31 °C
Abs-Feuchte
(Aussen-T/F)
4.66 g/m*3
19-02-2022  07:00:00
8.54 g/m*3
21-02-2022  01:35:00
6.29 g/m*3
Windchill
(Aussen-T/F)
-1.58 C
21-02-2022  07:55:00
11.3 C
20-02-2022  22:50:00
4.07 C

Die Daten stammen von einer Davis Vantage Pro 2 Wetter-Station und werden unter Linux mit der Software wview2wettercgi und aufbereitet. Alle Angaben erfolgen ohne Gewähr für ihre Vollständigkeit oder Richtigkeit.
Kontakt: Rainer Krienke krienke@uni-koblenz.de . Meine Webseiten an der Uni Koblenz oder privat.
Version: $Revision: 0.78 $